createdAt,value
2022-08-03T00:01:55.222Z,1.43
2022-08-03T00:04:58.249Z,2.03
2022-08-03T00:08:01.541Z,2.00
2022-08-03T00:11:08.587Z,1.40
2022-08-03T00:14:11.957Z,1.20
2022-08-03T00:17:14.550Z,1.40
2022-08-03T00:20:16.691Z,1.50
2022-08-03T00:23:18.724Z,1.20
2022-08-03T00:26:23.790Z,1.67
2022-08-03T00:29:26.072Z,1.10
2022-08-03T00:32:28.273Z,1.30
2022-08-03T00:35:37.001Z,1.50
2022-08-03T00:38:52.607Z,1.10
2022-08-03T00:41:54.613Z,1.40
2022-08-03T00:44:56.628Z,1.20
2022-08-03T00:48:00.090Z,1.30
2022-08-03T00:51:02.754Z,1.30
2022-08-03T00:54:05.188Z,1.80
2022-08-03T00:57:07.898Z,1.37
2022-08-03T01:00:12.472Z,1.53
2022-08-03T01:03:14.461Z,1.50
2022-08-03T01:06:19.895Z,1.23
2022-08-03T01:09:39.913Z,1.30
2022-08-03T01:12:46.531Z,1.33
2022-08-03T01:15:48.435Z,1.23
2022-08-03T01:19:02.659Z,1.27
2022-08-03T01:22:41.413Z,1.30
2022-08-03T01:26:06.216Z,1.40
2022-08-03T01:29:30.052Z,1.13
2022-08-03T01:33:00.579Z,1.50
2022-08-03T01:36:13.182Z,1.40
2022-08-03T01:39:17.075Z,1.73
2022-08-03T01:42:21.885Z,1.53
2022-08-03T01:45:24.955Z,1.40
2022-08-03T01:48:28.197Z,1.30
2022-08-03T01:52:03.161Z,1.60
2022-08-03T01:54:55.833Z,1.70
2022-08-03T01:58:05.655Z,1.50
2022-08-03T02:01:10.472Z,1.63
2022-08-03T02:04:15.648Z,1.43
2022-08-03T02:07:18.538Z,1.50
2022-08-03T02:10:34.371Z,1.80
2022-08-03T02:13:39.745Z,1.50
2022-08-03T02:16:45.476Z,1.70
2022-08-03T02:19:48.435Z,1.80
2022-08-03T02:22:50.466Z,1.73
2022-08-03T02:25:57.979Z,1.90
2022-08-03T02:29:07.146Z,1.60
2022-08-03T02:32:16.757Z,1.90
2022-08-03T02:35:22.626Z,2.03
2022-08-03T02:38:31.591Z,1.80
2022-08-03T02:41:38.402Z,1.80
2022-08-03T02:44:47.850Z,1.83
2022-08-03T02:47:54.017Z,2.10
2022-08-03T02:51:00.133Z,1.63
2022-08-03T02:54:04.057Z,1.60
2022-08-03T02:57:09.689Z,1.43
2022-08-03T03:00:13.239Z,1.77
2022-08-03T03:03:35.297Z,1.70
2022-08-03T03:06:47.173Z,2.30
2022-08-03T03:09:51.109Z,1.80
2022-08-03T03:12:56.277Z,1.40
2022-08-03T03:16:05.109Z,2.17
2022-08-03T03:19:17.052Z,1.93
2022-08-03T03:22:22.686Z,2.00
2022-08-03T03:25:25.195Z,1.70
2022-08-03T03:28:27.517Z,2.20
2022-08-03T03:31:29.868Z,1.73
2022-08-03T03:34:32.328Z,2.20
2022-08-03T03:37:35.366Z,1.80
2022-08-03T03:40:38.305Z,1.90
2022-08-03T03:43:40.477Z,1.80
2022-08-03T03:46:42.848Z,2.20
2022-08-03T03:49:45.560Z,1.90
2022-08-03T03:52:47.568Z,2.00
2022-08-03T03:55:58.984Z,2.20
2022-08-03T03:59:04.902Z,2.07
2022-08-03T04:02:09.272Z,2.17
2022-08-03T04:05:30.387Z,1.90
2022-08-03T04:08:50.806Z,2.03
2022-08-03T04:11:58.759Z,2.00
2022-08-03T04:15:02.641Z,1.83
2022-08-03T04:18:06.731Z,2.00
2022-08-03T04:21:12.853Z,1.90
2022-08-03T04:24:15.910Z,2.57
2022-08-03T04:27:23.497Z,1.80
2022-08-03T04:30:28.563Z,2.30
2022-08-03T04:33:34.905Z,2.00
2022-08-03T04:36:44.970Z,2.07
2022-08-03T04:39:50.054Z,1.97
2022-08-03T04:42:55.965Z,2.13
2022-08-03T04:45:59.763Z,2.17
2022-08-03T04:49:02.597Z,1.90
2022-08-03T04:52:07.589Z,2.00
2022-08-03T04:55:09.826Z,2.20
2022-08-03T04:58:12.746Z,1.77
2022-08-03T05:01:16.070Z,2.30
2022-08-03T05:04:18.579Z,2.00
2022-08-03T05:07:24.864Z,2.20
2022-08-03T05:10:27.355Z,2.30
2022-08-03T05:13:29.366Z,2.23
2022-08-03T05:16:31.562Z,2.30
2022-08-03T05:19:33.631Z,2.00
2022-08-03T05:22:35.725Z,1.97
2022-08-03T05:25:37.769Z,2.40
2022-08-03T05:28:50.816Z,2.13
2022-08-03T05:31:57.501Z,2.37
2022-08-03T05:35:00.423Z,2.20
2022-08-03T05:38:28.165Z,2.20
2022-08-03T05:41:37.071Z,2.40
2022-08-03T05:44:39.646Z,2.17
2022-08-03T05:47:44.381Z,2.20
2022-08-03T05:50:46.426Z,2.20
2022-08-03T05:53:48.403Z,2.40
2022-08-03T05:56:50.682Z,2.20
2022-08-03T05:59:54.792Z,2.30
2022-08-03T06:03:00.923Z,2.00
2022-08-03T06:06:03.007Z,2.03
2022-08-03T06:09:05.198Z,2.13
2022-08-03T06:12:10.089Z,2.40
2022-08-03T06:15:16.718Z,2.00
2022-08-03T06:18:18.871Z,2.70
2022-08-03T06:21:20.845Z,2.20
2022-08-03T06:24:25.105Z,2.20
2022-08-03T06:27:36.849Z,2.40
2022-08-03T06:30:39.936Z,2.20
2022-08-03T06:34:30.907Z,2.37
2022-08-03T06:37:03.992Z,2.37
2022-08-03T06:40:07.762Z,2.20
2022-08-03T06:43:12.492Z,2.00
2022-08-03T06:46:14.872Z,2.23
2022-08-03T06:49:17.162Z,2.37
2022-08-03T06:52:37.189Z,1.97
2022-08-03T06:55:42.311Z,2.10
2022-08-03T06:58:44.629Z,2.13
2022-08-03T07:01:52.874Z,2.30
2022-08-03T07:04:54.969Z,2.00
2022-08-03T07:08:02.047Z,2.27
2022-08-03T07:11:04.096Z,1.83
2022-08-03T07:14:06.520Z,1.57
2022-08-03T07:17:11.718Z,1.77
2022-08-03T07:20:15.394Z,1.83
2022-08-03T07:23:19.319Z,2.13
2022-08-03T07:26:21.606Z,1.90
2022-08-03T07:29:23.677Z,1.93
2022-08-03T07:32:26.525Z,1.90
2022-08-03T07:35:28.494Z,1.90
2022-08-03T07:38:30.508Z,1.70
2022-08-03T07:41:32.644Z,1.80
2022-08-03T07:44:34.769Z,1.30
2022-08-03T07:47:36.798Z,1.70
2022-08-03T07:50:38.775Z,1.40
2022-08-03T07:53:45.983Z,1.47
2022-08-03T07:56:49.800Z,1.67
2022-08-03T08:00:01.717Z,1.20
2022-08-03T08:03:13.965Z,1.70
2022-08-03T08:06:16.499Z,1.30
2022-08-03T08:09:18.473Z,1.58
2022-08-03T08:12:20.651Z,1.40
2022-08-03T08:15:23.140Z,1.30
2022-08-03T08:18:25.324Z,1.20
2022-08-03T08:21:53.262Z,1.38
2022-08-03T08:24:49.394Z,1.10
2022-08-03T08:28:31.450Z,1.40
2022-08-03T08:31:15.995Z,1.08
2022-08-03T08:34:18.038Z,1.15
2022-08-03T08:37:20.065Z,1.30
2022-08-03T08:40:23.091Z,1.52
2022-08-03T08:43:25.161Z,1.30
2022-08-03T08:46:27.747Z,1.10
2022-08-03T08:49:33.137Z,1.50
2022-08-03T08:52:35.927Z,1.02
2022-08-03T08:55:56.932Z,1.30
2022-08-03T08:59:02.972Z,1.52
2022-08-03T10:01:56.933Z,1.20
2022-08-03T10:04:58.913Z,1.45
2022-08-03T10:08:01.129Z,1.45
2022-08-03T10:11:03.129Z,1.40
2022-08-03T10:14:06.829Z,1.17
2022-08-03T10:17:09.890Z,1.30
2022-08-03T10:20:12.382Z,1.25
2022-08-03T10:23:17.054Z,1.20
2022-08-03T10:26:22.881Z,0.90
2022-08-03T10:29:28.544Z,1.42
2022-08-03T10:32:52.594Z,1.27
2022-08-03T10:35:59.518Z,1.10
2022-08-03T10:39:02.949Z,1.25
2022-08-03T10:42:18.164Z,1.15
2022-08-03T10:45:24.212Z,1.10
2022-08-03T10:48:26.804Z,1.10
2022-08-03T10:51:32.387Z,1.40
2022-08-03T10:54:37.437Z,1.20
2022-08-03T10:57:46.484Z,1.20
2022-08-03T11:00:51.307Z,1.20
2022-08-03T11:03:53.317Z,1.00
2022-08-03T11:07:25.345Z,1.20
2022-08-03T11:10:32.007Z,1.10
2022-08-03T11:13:34.213Z,1.02
2022-08-03T11:16:38.951Z,1.02
2022-08-03T11:19:57.023Z,1.00
2022-08-03T11:23:01.793Z,1.10
2022-08-03T11:26:22.745Z,1.10
2022-08-03T11:29:31.391Z,1.10
2022-08-03T11:32:46.857Z,1.00
2022-08-03T11:36:02.988Z,0.90
2022-08-03T11:39:16.678Z,1.10
2022-08-03T11:42:24.782Z,1.30
2022-08-03T11:45:27.209Z,1.20
2022-08-03T11:48:38.390Z,0.80
2022-08-03T11:51:41.057Z,1.08
2022-08-03T11:54:43.918Z,1.08
2022-08-03T11:59:00.904Z,0.95
2022-08-03T12:01:12.550Z,1.15
2022-08-03T12:04:16.519Z,0.80
2022-08-03T12:08:02.264Z,1.02
2022-08-03T12:10:47.747Z,0.80
2022-08-03T12:14:44.170Z,1.20
2022-08-03T12:17:13.362Z,1.00
2022-08-03T12:20:31.554Z,0.90
2022-08-03T12:23:38.368Z,1.10
2022-08-03T12:26:58.459Z,1.05
2022-08-03T12:30:02.478Z,1.20
2022-08-03T12:33:14.925Z,1.05
2022-08-03T12:36:17.301Z,0.85
2022-08-03T12:39:23.951Z,1.10
2022-08-03T12:42:36.820Z,1.10
2022-08-03T12:45:38.895Z,0.90
2022-08-03T12:49:00.517Z,1.30
2022-08-03T12:52:07.027Z,1.10
2022-08-03T12:55:21.831Z,1.00
2022-08-03T12:58:34.697Z,0.90
2022-08-03T13:01:55.305Z,1.10
2022-08-03T13:04:58.128Z,0.98
2022-08-03T13:08:00.220Z,0.95
2022-08-03T13:11:22.383Z,1.10
2022-08-03T13:14:24.403Z,1.10
2022-08-03T13:17:27.515Z,1.23
2022-08-03T13:20:29.620Z,1.13
2022-08-03T13:23:31.645Z,0.80
2022-08-03T13:26:33.559Z,0.88
2022-08-03T13:29:35.768Z,1.23
2022-08-03T13:32:37.769Z,1.38
2022-08-03T13:35:39.771Z,0.98
2022-08-03T13:38:41.801Z,1.10
2022-08-03T13:41:44.649Z,1.20
2022-08-03T13:44:46.694Z,1.10
2022-08-03T13:47:49.730Z,0.90
2022-08-03T13:50:51.742Z,1.00
2022-08-03T13:53:53.864Z,1.00
2022-08-03T13:57:00.368Z,1.10
2022-08-03T14:00:27.895Z,1.20
2022-08-03T14:03:30.820Z,1.10
2022-08-03T14:06:33.040Z,1.13
2022-08-03T14:09:35.137Z,1.20
2022-08-03T14:12:37.123Z,1.20
2022-08-03T14:15:39.188Z,1.20
2022-08-03T14:18:42.551Z,1.20
2022-08-03T14:21:46.275Z,1.15
2022-08-03T14:25:04.148Z,1.20
2022-08-03T14:28:06.132Z,1.13
2022-08-03T14:32:09.097Z,1.25
2022-08-03T14:34:30.371Z,1.40
2022-08-03T14:37:33.810Z,1.10
2022-08-03T14:40:35.978Z,1.10
2022-08-03T14:43:37.981Z,1.40
2022-08-03T14:46:39.992Z,1.27
2022-08-03T14:50:38.879Z,1.02
2022-08-03T14:53:04.992Z,1.15
2022-08-03T14:56:10.375Z,1.20
2022-08-03T14:59:12.823Z,1.15
2022-08-03T15:52:56.209Z,1.30
2022-08-03T15:55:59.824Z,0.90
2022-08-03T15:59:12.044Z,1.20
2022-08-03T16:02:16.128Z,1.40
2022-08-03T16:05:18.263Z,1.30
2022-08-03T16:08:20.552Z,1.25
2022-08-03T16:11:22.675Z,1.10
2022-08-03T16:14:34.235Z,1.30
2022-08-03T16:17:41.092Z,1.30
2022-08-03T16:20:45.122Z,1.40
2022-08-03T16:23:47.796Z,1.10
2022-08-03T16:26:50.141Z,1.30
2022-08-03T16:29:52.402Z,1.50
2022-08-03T16:32:54.527Z,1.25
2022-08-03T16:35:56.669Z,1.45
2022-08-03T16:38:58.741Z,1.48
2022-08-03T16:42:03.553Z,1.40
2022-08-03T16:45:07.638Z,1.40
2022-08-03T16:48:09.883Z,1.20
2022-08-03T16:51:11.915Z,1.38
2022-08-03T16:54:15.681Z,1.70
2022-08-03T16:57:55.999Z,1.70
2022-08-03T17:00:43.305Z,1.80
2022-08-03T17:03:57.383Z,1.77
2022-08-03T17:07:07.188Z,2.22
2022-08-03T17:10:12.484Z,2.47
2022-08-03T17:13:21.846Z,2.20
2022-08-03T17:16:24.690Z,1.85
2022-08-03T17:19:29.717Z,2.45
2022-08-03T17:22:34.793Z,2.95
2022-08-03T17:25:39.867Z,1.85
2022-08-03T17:29:12.655Z,2.20
2022-08-03T17:32:21.613Z,1.80
2022-08-03T17:35:23.979Z,2.20
2022-08-03T17:38:26.602Z,2.00
2022-08-03T17:41:34.051Z,2.70
2022-08-03T17:47:58.739Z,2.00
2022-08-03T17:51:07.849Z,1.92
2022-08-03T17:54:24.149Z,1.85
2022-08-03T17:57:29.153Z,1.80
2022-08-03T18:01:59.613Z,1.58
2022-08-03T18:04:44.327Z,4.03
2022-08-03T18:08:02.486Z,2.63
2022-08-03T18:11:09.746Z,2.90
2022-08-03T18:14:27.704Z,2.50
2022-08-03T18:17:54.714Z,2.33
2022-08-03T18:21:01.165Z,5.40
2022-08-03T18:24:07.895Z,3.40
2022-08-03T18:27:16.186Z,2.93
2022-08-03T18:30:21.783Z,2.37
2022-08-03T18:34:18.323Z,4.60
2022-08-03T18:36:55.939Z,3.13
2022-08-03T18:39:58.512Z,2.03
2022-08-03T18:43:08.879Z,2.07
2022-08-03T18:46:48.144Z,1.90
2022-08-03T18:50:19.255Z,1.77
2022-08-03T18:54:03.010Z,1.53
2022-08-03T18:57:07.616Z,1.47
2022-08-03T19:00:24.279Z,1.30
2022-08-03T19:03:43.583Z,1.30
2022-08-03T19:06:48.843Z,1.40
2022-08-03T19:09:56.162Z,1.43
2022-08-03T19:13:31.024Z,1.30
2022-08-03T19:16:41.883Z,1.43
2022-08-03T19:19:48.123Z,1.40
2022-08-03T19:22:52.394Z,1.43
2022-08-03T19:25:56.898Z,1.40
2022-08-03T19:28:59.486Z,1.50
2022-08-03T19:32:02.897Z,1.80
2022-08-03T19:35:13.345Z,1.40
2022-08-03T19:38:28.374Z,1.40
2022-08-03T19:41:42.335Z,1.30
2022-08-03T19:44:50.579Z,1.50
2022-08-03T19:48:08.033Z,1.40
2022-08-03T19:51:12.383Z,1.80
2022-08-03T19:54:16.320Z,1.40
2022-08-03T19:57:22.861Z,1.40
2022-08-03T20:00:34.055Z,1.47
2022-08-03T20:03:43.423Z,1.50
2022-08-03T20:06:47.448Z,1.47
2022-08-03T20:09:54.591Z,1.60
2022-08-03T20:12:59.899Z,1.65
2022-08-03T20:16:02.384Z,1.70
2022-08-03T20:19:05.326Z,1.70
2022-08-03T20:22:16.692Z,1.67
2022-08-03T20:25:25.260Z,1.80
2022-08-03T20:29:09.235Z,1.23
2022-08-03T20:32:13.136Z,1.80
2022-08-03T20:35:15.336Z,1.73
2022-08-03T20:38:19.652Z,1.47
2022-08-03T20:41:22.478Z,1.83
2022-08-03T20:44:25.737Z,1.80
2022-08-03T20:47:29.618Z,1.47
2022-08-03T20:50:35.047Z,1.67
2022-08-03T21:13:04.699Z,2.72
2022-08-03T21:53:10.870Z,1.80
2022-08-03T21:56:16.021Z,2.10
2022-08-03T21:59:20.185Z,2.00
2022-08-03T22:02:27.812Z,2.00
2022-08-03T22:05:43.482Z,1.77
2022-08-03T22:08:47.555Z,2.07
2022-08-03T22:11:54.308Z,2.30
2022-08-03T22:15:01.526Z,1.70
2022-08-03T22:18:04.948Z,1.93
2022-08-03T22:21:09.352Z,2.20
2022-08-03T22:24:11.796Z,2.00
2022-08-03T22:27:32.142Z,1.80
2022-08-03T22:30:35.242Z,2.33
2022-08-03T22:33:38.626Z,2.07
2022-08-03T22:36:40.849Z,2.03
2022-08-03T22:39:43.994Z,1.87
2022-08-03T22:42:49.513Z,2.03
2022-08-03T22:46:10.540Z,1.97
2022-08-03T22:49:15.352Z,2.10
2022-08-03T23:55:52.504Z,1.70
2022-08-03T23:59:26.996Z,1.93
